Time;durP1;ratioP1;P1;durP2;ratioP2;P2;SDS_P1;SDS_P2;PMS_P1;PMS_P2;Temp;Humidity;BMP_temperature;BMP_pressure;BME280_temperature;BME280_humidity;BME280_pressure;Samples;Min_cycle;Max_cycle;Signal;HPM_P1;HPM_P2
2022/06/29 00:02:09;;;;;;;;;;;;;;;22.01;100.00;99510.88;5130680;28;20372;-51
2022/06/29 00:04:35;;;;;;;;;;;;;;;21.92;100.00;99524.66;5130382;28;19927;-49
2022/06/29 00:07:01;;;;;;;;;;;;;;;22.02;100.00;99531.22;5130713;28;19978;-49
2022/06/29 00:09:27;;;;;;;;;;;;;;;22.01;100.00;99538.81;5130572;27;20026;-48
2022/06/29 00:11:52;;;;;;;;;;;;;;;21.97;100.00;99542.91;5134047;28;20389;-48
2022/06/29 00:14:19;;;;;;;;;;;;;;;21.90;100.00;99562.59;5133815;28;20026;-50
2022/06/29 00:16:45;;;;;;;;;;;;;;;21.96;100.00;99572.00;5133846;28;19927;-51
2022/06/29 00:19:11;;;;;;;;;;;;;;;21.87;100.00;99580.22;5133640;28;19973;-47
2022/06/29 00:21:37;;;;;;;;;;;;;;;21.87;100.00;99581.00;5133922;28;19934;-48
2022/06/29 00:24:02;;;;;;;;;;;;;;;21.87;100.00;99581.00;5133965;28;19997;-48
2022/06/29 00:26:28;;;;;;;;;;;;;;;21.85;100.00;99602.97;5133950;28;20377;-50
2022/06/29 00:28:54;;;;;;;;;;;;;;;21.80;100.00;99598.69;5134075;28;19934;-51
2022/06/29 00:31:21;;;;;;;;;;;;;;;21.69;100.00;99642.75;5133496;28;19931;-51
2022/06/29 00:33:47;;;;;;;;;;;;;;;21.72;100.00;99641.88;5133624;28;19928;-50
2022/06/29 00:36:13;;;;;;;;;;;;;;;21.64;100.00;99653.63;5133485;28;20420;-48
2022/06/29 00:38:38;;;;;;;;;;;;;;;21.66;100.00;99659.56;5133669;28;19927;-49
2022/06/29 00:41:04;;;;;;;;;;;;;;;21.63;100.00;99663.22;5133467;28;19948;-48
2022/06/29 00:43:38;;;;;;;;;;;;;;;21.50;100.00;99680.59;5133478;28;19957;-48
2022/06/29 00:46:04;;;;;;;;;;;;;;;21.59;100.00;99674.44;5133465;28;20282;-52
2022/06/29 00:48:31;;;;;;;;;;;;;;;21.51;100.00;99679.34;5133371;28;19928;-48
2022/06/29 00:50:58;;;;;;;;;;;;;;;21.58;100.00;99672.84;5133253;28;20014;-47
2022/06/29 00:53:26;;;;;;;;;;;;;;;21.50;100.00;99685.38;5133604;28;19971;-48
2022/06/29 00:55:57;;;;;;;;;;;;;;;21.49;100.00;99695.75;5133656;28;20484;-45
2022/06/29 00:58:25;;;;;;;;;;;;;;;21.52;100.00;99713.63;5133010;28;19948;-48
2022/06/29 01:00:51;;;;;;;;;;;;;;;21.52;100.00;99710.81;5133522;28;19978;-45
2022/06/29 01:03:17;;;;;;;;;;;;;;;21.54;100.00;99723.16;5133038;28;19935;-47
2022/06/29 01:05:44;;;;;;;;;;;;;;;21.52;100.00;99727.56;5133203;28;19927;-46
2022/06/29 01:08:11;;;;;;;;;;;;;;;21.48;100.00;99721.28;5132867;28;19927;-49
2022/06/29 01:10:37;;;;;;;;;;;;;;;21.48;100.00;99724.84;5132993;28;19934;-45
2022/06/29 01:13:03;;;;;;;;;;;;;;;21.48;100.00;99718.47;5132755;28;19932;-45
2022/06/29 01:15:29;;;;;;;;;;;;;;;21.47;100.00;99730.84;5132962;28;20366;-44
2022/06/29 01:17:55;;;;;;;;;;;;;;;21.44;100.00;99732.50;5133296;28;19937;-45
2022/06/29 01:20:21;;;;;;;;;;;;;;;21.36;100.00;99739.41;5133110;28;19931;-45
2022/06/29 01:22:48;;;;;;;;;;;;;;;21.42;100.00;99748.84;5131707;27;19927;-48
2022/06/29 01:25:14;;;;;;;;;;;;;;;21.40;100.00;99740.13;5132863;28;20310;-46
2022/06/29 01:27:39;;;;;;;;;;;;;;;21.47;100.00;99731.66;5132922;28;19927;-47
2022/06/29 01:30:07;;;;;;;;;;;;;;;21.47;100.00;99720.47;5132572;28;20402;-47
2022/06/29 01:32:33;;;;;;;;;;;;;;;21.49;100.00;99704.13;5132955;28;19927;-47
2022/06/29 01:34:59;;;;;;;;;;;;;;;21.47;100.00;99703.75;5132534;28;19928;-48
2022/06/29 01:37:25;;;;;;;;;;;;;;;21.42;100.00;99715.38;5132523;28;20443;-47
2022/06/29 01:39:52;;;;;;;;;;;;;;;21.43;100.00;99708.59;5132438;28;19931;-48
2022/06/29 01:42:18;;;;;;;;;;;;;;;21.44;100.00;99704.59;5132481;28;19934;-50
2022/06/29 01:44:44;;;;;;;;;;;;;;;21.43;100.00;99714.19;5132225;28;19927;-47
2022/06/29 01:47:09;;;;;;;;;;;;;;;21.37;100.00;99732.63;5132488;28;19931;-49
2022/06/29 01:49:35;;;;;;;;;;;;;;;21.37;100.00;99733.41;5132281;28;20010;-49
2022/06/29 01:52:01;;;;;;;;;;;;;;;21.30;100.00;99741.06;5132433;28;19938;-50
2022/06/29 01:54:27;;;;;;;;;;;;;;;21.33;100.00;99751.38;5132043;28;20350;-46
2022/06/29 01:56:54;;;;;;;;;;;;;;;21.30;100.00;99757.81;5132263;28;19971;-48
2022/06/29 01:59:21;;;;;;;;;;;;;;;21.14;100.00;99758.44;5132441;28;19927;-49
2022/06/29 02:01:48;;;;;;;;;;;;;;;21.09;100.00;99778.44;5131970;28;19928;-50
2022/06/29 02:04:14;;;;;;;;;;;;;;;21.20;100.00;99769.94;5132141;28;19927;-50
2022/06/29 02:06:40;;;;;;;;;;;;;;;21.12;100.00;99772.00;5131954;28;19931;-50
2022/06/29 02:09:06;;;;;;;;;;;;;;;21.19;100.00;99785.06;5132085;28;19934;-51
2022/06/29 02:11:32;;;;;;;;;;;;;;;21.23;100.00;99780.22;5131879;28;20340;-48
2022/06/29 02:13:59;;;;;;;;;;;;;;;21.23;100.00;99788.59;5131813;28;19935;-50
2022/06/29 02:16:25;;;;;;;;;;;;;;;21.30;100.00;99789.28;5132105;28;19927;-51
2022/06/29 02:18:51;;;;;;;;;;;;;;;21.37;100.00;99777.25;5131881;28;19934;-47
2022/06/29 02:21:16;;;;;;;;;;;;;;;21.31;100.00;99796.41;5132199;28;19927;-47
2022/06/29 02:23:42;;;;;;;;;;;;;;;21.24;100.00;99793.75;5131958;28;20404;-49
2022/06/29 02:26:09;;;;;;;;;;;;;;;21.59;100.00;99780.44;5131979;28;19927;-49
2022/06/29 02:28:35;;;;;;;;;;;;;;;21.52;100.00;99756.25;5131725;28;19927;-47
2022/06/29 02:36:29;;;;;;;;;;;;;;;21.78;100.00;99737.06;5131802;28;19971;-48
2022/06/29 02:38:55;;;;;;;;;;;;;;;21.86;100.00;99727.34;5131387;28;19927;-48
2022/06/29 02:41:21;;;;;;;;;;;;;;;21.92;100.00;99734.00;5131791;28;20009;-48
2022/06/29 02:43:47;;;;;;;;;;;;;;;21.96;100.00;99745.09;5131596;28;19927;-46
2022/06/29 02:46:14;;;;;;;;;;;;;;;21.94;100.00;99684.13;5131556;28;19963;-47
2022/06/29 02:48:40;;;;;;;;;;;;;;;21.94;100.00;99702.88;5131638;28;19967;-46
2022/06/29 02:51:06;;;;;;;;;;;;;;;22.06;100.00;99730.94;5131317;28;19950;-48
2022/06/29 02:53:32;;;;;;;;;;;;;;;22.08;100.00;99697.78;5131510;28;20391;-47
2022/06/29 02:55:58;;;;;;;;;;;;;;;21.97;100.00;99674.88;5131334;28;19934;-46
2022/06/29 02:58:24;;;;;;;;;;;;;;;22.14;100.00;99614.31;5131585;28;19934;-47
2022/06/29 03:00:50;;;;;;;;;;;;;;;22.17;100.00;99584.75;5131485;28;19927;-50
2022/06/29 03:03:16;;;;;;;;;;;;;;;21.83;100.00;99611.78;5131460;28;20496;-46
2022/06/29 03:05:42;;;;;;;;;;;;;;;22.09;100.00;99604.44;5131193;28;19928;-49
2022/06/29 03:08:08;;;;;;;;;;;;;;;22.13;100.00;99595.97;5131582;28;20030;-50
2022/06/29 03:10:35;;;;;;;;;;;;;;;22.06;100.00;99621.28;5131277;28;20259;-49
2022/06/29 03:13:00;;;;;;;;;;;;;;;22.00;100.00;99598.66;5131019;28;19934;-50
2022/06/29 03:15:26;;;;;;;;;;;;;;;21.88;100.00;99563.03;5131217;28;19927;-48
2022/06/29 03:17:52;;;;;;;;;;;;;;;21.64;100.00;99565.13;5130982;28;20022;-48
2022/06/29 03:20:19;;;;;;;;;;;;;;;22.01;100.00;99569.50;5131204;28;20018;-49
2022/06/29 03:22:46;;;;;;;;;;;;;;;21.97;100.00;99551.28;5130863;28;20014;-50
2022/06/29 03:25:12;;;;;;;;;;;;;;;22.19;100.00;99540.41;5131144;28;20077;-48
2022/06/29 03:27:38;;;;;;;;;;;;;;;22.28;100.00;99507.09;5130894;28;20006;-47
2022/06/29 03:30:04;;;;;;;;;;;;;;;22.38;100.00;99489.28;5131012;28;20302;-46
2022/06/29 03:32:30;;;;;;;;;;;;;;;22.31;100.00;99481.88;5130800;28;19971;-46
2022/06/29 03:34:57;;;;;;;;;;;;;;;22.39;100.00;99462.13;5130573;28;20014;-47
2022/06/29 03:37:23;;;;;;;;;;;;;;;22.45;100.00;99432.44;5130967;28;20386;-46
2022/06/29 03:39:49;;;;;;;;;;;;;;;22.49;100.00;99431.16;5130895;28;19932;-49
2022/06/29 03:42:15;;;;;;;;;;;;;;;22.38;100.00;99436.22;5130944;28;20383;-47
2022/06/29 03:44:41;;;;;;;;;;;;;;;22.15;100.00;99419.63;5131206;27;20341;-46
2022/06/29 03:47:07;;;;;;;;;;;;;;;22.26;100.00;99443.31;5134551;28;19927;-45
2022/06/29 03:49:33;;;;;;;;;;;;;;;22.37;100.00;99467.38;5134157;28;19928;-46
2022/06/29 03:51:59;;;;;;;;;;;;;;;22.38;100.00;99486.50;5134621;28;19934;-46
2022/06/29 03:54:26;;;;;;;;;;;;;;;21.80;100.00;99640.53;5134027;28;20297;-48
2022/06/29 03:56:52;;;;;;;;;;;;;;;21.21;100.00;99730.44;5134392;28;19931;-48
2022/06/29 03:59:18;;;;;;;;;;;;;;;21.42;100.00;99746.06;5134198;28;20285;-46
2022/06/29 04:01:46;;;;;;;;;;;;;;;21.62;100.00;99681.94;5134276;28;20576;-49
2022/06/29 04:04:12;;;;;;;;;;;;;;;21.56;100.00;99706.78;5134038;28;19931;-48
2022/06/29 04:06:37;;;;;;;;;;;;;;;20.96;100.00;99739.22;5134492;28;20058;-47
2022/06/29 04:09:04;;;;;;;;;;;;;;;21.13;100.00;99751.31;5134120;28;20296;-46
2022/06/29 04:14:14;;;;;;;;;;;;;;;21.01;100.00;99724.78;5123269;28;19935;-46
2022/06/29 04:16:40;;;;;;;;;;;;;;;21.01;100.00;99758.25;5133777;28;20420;-49
2022/06/29 04:19:05;;;;;;;;;;;;;;;21.02;100.00;99745.88;5134129;28;20333;-47
2022/06/29 04:21:31;;;;;;;;;;;;;;;20.98;100.00;99752.72;5133656;28;20314;-50
2022/06/29 04:23:57;;;;;;;;;;;;;;;21.37;100.00;99749.34;5133895;28;19927;-46
2022/06/29 04:26:23;;;;;;;;;;;;;;;21.60;100.00;99729.81;5133582;28;20302;-50
2022/06/29 04:28:50;;;;;;;;;;;;;;;21.72;100.00;99669.00;5133746;28;19931;-46
2022/06/29 04:31:16;;;;;;;;;;;;;;;21.76;100.00;99630.66;5133412;28;19934;-50
2022/06/29 04:33:42;;;;;;;;;;;;;;;21.43;100.00;99708.59;5133600;28;20018;-49
2022/06/29 04:36:08;;;;;;;;;;;;;;;21.23;100.00;99710.53;5133726;28;20340;-47
2022/06/29 04:38:34;;;;;;;;;;;;;;;21.67;100.00;99691.84;5133429;28;19927;-49
2022/06/29 04:41:00;;;;;;;;;;;;;;;21.73;100.00;99648.28;5133597;28;20301;-46
2022/06/29 04:43:27;;;;;;;;;;;;;;;21.67;100.00;99638.81;5133252;28;19927;-48
2022/06/29 04:48:38;;;;;;;;;;;;;;;21.61;100.00;99646.91;5133522;28;20364;-46
2022/06/29 04:51:04;;;;;;;;;;;;;;;21.51;100.00;99657.03;5133657;28;20143;-46
2022/06/29 04:53:30;;;;;;;;;;;;;;;21.63;100.00;99682.75;5133078;28;19927;-46
2022/06/29 04:55:56;;;;;;;;;;;;;;;21.43;100.00;99730.13;5132924;27;19951;-47
2022/06/29 04:58:22;;;;;;;;;;;;;;;21.55;100.00;99766.56;5132888;28;19932;-46
2022/06/29 05:00:48;;;;;;;;;;;;;;;21.40;100.00;99775.59;5132936;28;19932;-46
2022/06/29 05:03:14;;;;;;;;;;;;;;;21.56;100.00;99806.44;5133130;28;19953;-47
2022/06/29 05:05:40;;;;;;;;;;;;;;;21.60;100.00;99813.50;5133029;28;19931;-46
2022/06/29 05:08:06;;;;;;;;;;;;;;;21.32;100.00;99827.88;5132970;28;20382;-46
2022/06/29 05:10:32;;;;;;;;;;;;;;;21.26;100.00;99823.97;5132751;28;19971;-46
2022/06/29 05:12:58;;;;;;;;;;;;;;;21.57;100.00;99836.69;5132605;28;19935;-46
2022/06/29 05:15:24;;;;;;;;;;;;;;;21.32;100.00;99847.41;5132695;28;20309;-48
2022/06/29 05:17:50;;;;;;;;;;;;;;;21.21;100.00;99863.50;5132793;28;19927;-46
2022/06/29 05:20:19;;;;;;;;;;;;;;;21.46;100.00;99835.25;5132627;28;19927;-46
2022/06/29 05:22:45;;;;;;;;;;;;;;;21.17;100.00;99837.69;5132563;28;19927;-46
2022/06/29 05:25:11;;;;;;;;;;;;;;;20.73;100.00;99845.84;5132537;28;19939;-52
2022/06/29 05:27:37;;;;;;;;;;;;;;;20.38;100.00;99752.31;5132466;28;20375;-50
2022/06/29 05:30:03;;;;;;;;;;;;;;;19.63;100.00;99619.66;5132485;28;19928;-53
2022/06/29 05:32:29;;;;;;;;;;;;;;;19.39;100.00;99501.94;5132660;28;20384;-52
2022/06/29 05:34:55;;;;;;;;;;;;;;;18.89;100.00;99433.84;5132714;28;19927;-51
2022/06/29 05:37:22;;;;;;;;;;;;;;;19.07;100.00;99402.31;5132450;28;19954;-50
2022/06/29 05:39:48;;;;;;;;;;;;;;;19.19;100.00;99377.53;5132616;28;19928;-51
2022/06/29 05:42:14;;;;;;;;;;;;;;;19.20;100.00;99381.09;5132208;28;20385;-50
2022/06/29 05:44:40;;;;;;;;;;;;;;;19.67;100.00;99370.09;5132599;28;19939;-53
2022/06/29 05:47:07;;;;;;;;;;;;;;;19.78;100.00;99361.56;5132244;28;19928;-51
2022/06/29 05:49:33;;;;;;;;;;;;;;;20.13;100.00;99374.88;5132348;28;19933;-53
2022/06/29 05:51:59;;;;;;;;;;;;;;;20.36;100.00;99373.28;5132461;28;19966;-52
2022/06/29 05:54:26;;;;;;;;;;;;;;;20.35;100.00;99391.19;5132341;28;19974;-55
2022/06/29 05:56:52;;;;;;;;;;;;;;;20.45;100.00;99406.91;5132209;28;19951;-53
2022/06/29 05:59:18;;;;;;;;;;;;;;;20.64;100.00;99411.75;5132151;28;19927;-52
2022/06/29 06:01:44;;;;;;;;;;;;;;;20.72;100.00;99415.19;5132090;28;19927;-53
2022/06/29 06:04:10;;;;;;;;;;;;;;;20.46;100.00;99439.16;5131771;28;19931;-51
2022/06/29 06:06:36;;;;;;;;;;;;;;;20.83;100.00;99448.44;5132152;28;19934;-55
2022/06/29 06:09:01;;;;;;;;;;;;;;;21.45;100.00;99459.94;5131155;27;19931;-57
2022/06/29 06:11:28;;;;;;;;;;;;;;;21.88;100.00;99498.03;5132055;28;20401;-51
2022/06/29 06:13:54;;;;;;;;;;;;;;;21.65;100.00;99504.53;5131702;28;20397;-52
2022/06/29 06:16:20;;;;;;;;;;;;;;;21.69;100.00;99516.41;5131844;28;19934;-56
2022/06/29 06:18:46;;;;;;;;;;;;;;;21.40;100.00;99514.22;5131667;28;19928;-58
2022/06/29 06:21:13;;;;;;;;;;;;;;;21.33;100.00;99492.03;5131688;28;19931;-56
2022/06/29 06:23:38;;;;;;;;;;;;;;;21.40;100.00;99485.56;5131672;28;20441;-55
2022/06/29 06:26:04;;;;;;;;;;;;;;;21.72;100.00;99462.50;5131513;28;19927;-53
2022/06/29 06:28:31;;;;;;;;;;;;;;;21.93;100.00;99461.25;5131775;28;19953;-52
2022/06/29 06:30:57;;;;;;;;;;;;;;;22.26;100.00;99464.88;5131531;28;19927;-56
2022/06/29 06:33:23;;;;;;;;;;;;;;;22.71;100.00;99492.03;5131588;28;20338;-53
2022/06/29 06:35:49;;;;;;;;;;;;;;;22.92;100.00;99483.06;5131485;28;19927;-56
2022/06/29 06:38:15;;;;;;;;;;;;;;;23.18;100.00;99491.59;5131635;28;19934;-56
2022/06/29 06:43:25;;;;;;;;;;;;;;;23.16;100.00;99589.94;5131935;28;19934;-55
2022/06/29 06:45:52;;;;;;;;;;;;;;;23.30;100.00;99597.13;5131333;28;19939;-55
2022/06/29 06:48:18;;;;;;;;;;;;;;;23.28;100.00;99607.19;5131696;28;19927;-52
2022/06/29 06:50:44;;;;;;;;;;;;;;;23.10;100.00;99621.66;5131184;28;20318;-56
2022/06/29 06:53:10;;;;;;;;;;;;;;;23.02;100.00;99590.28;5130959;28;20018;-56
2022/06/29 06:55:36;;;;;;;;;;;;;;;22.90;100.00;99565.81;5131167;28;19934;-56
2022/06/29 06:58:02;;;;;;;;;;;;;;;22.60;100.00;99553.81;5131253;28;19931;-55
2022/06/29 07:00:28;;;;;;;;;;;;;;;22.48;100.00;99544.09;5131346;28;19996;-56
2022/06/29 07:02:55;;;;;;;;;;;;;;;22.39;100.00;99526.38;5131063;28;19931;-53
2022/06/29 07:05:21;;;;;;;;;;;;;;;22.19;100.00;99551.59;5131230;28;20445;-56
2022/06/29 07:07:47;;;;;;;;;;;;;;;22.10;100.00;99543.78;5130895;28;20369;-53
2022/06/29 07:10:13;;;;;;;;;;;;;;;21.99;100.00;99563.59;5131335;28;19927;-52
2022/06/29 07:12:39;;;;;;;;;;;;;;;21.84;100.00;99604.97;5130983;28;20310;-56
2022/06/29 07:15:05;;;;;;;;;;;;;;;21.86;100.00;99621.28;5130909;28;19934;-57
2022/06/29 07:17:31;;;;;;;;;;;;;;;21.76;100.00;99608.31;5130840;28;20014;-55
2022/06/29 07:19:58;;;;;;;;;;;;;;;21.55;100.00;99609.53;5131512;27;19928;-56
2022/06/29 07:22:24;;;;;;;;;;;;;;;21.67;100.00;99597.75;5134628;28;19974;-56
2022/06/29 07:24:50;;;;;;;;;;;;;;;21.60;100.00;99597.91;5134370;28;19927;-54
2022/06/29 07:27:16;;;;;;;;;;;;;;;21.39;100.00;99579.56;5134681;28;19970;-54
2022/06/29 07:29:42;;;;;;;;;;;;;;;21.36;100.00;99588.81;5134542;28;20342;-54
2022/06/29 07:32:08;;;;;;;;;;;;;;;21.25;100.00;99575.03;5134591;28;20306;-56
2022/06/29 07:34:34;;;;;;;;;;;;;;;21.38;100.00;99559.25;5134097;28;20305;-56
2022/06/29 07:37:01;;;;;;;;;;;;;;;21.26;100.00;99547.94;5133851;28;19927;-55
2022/06/29 07:39:30;;;;;;;;;;;;;;;21.29;100.00;99541.50;5133762;28;19985;-56
2022/06/29 07:41:56;;;;;;;;;;;;;;;21.10;100.00;99529.91;5134062;28;20013;-56
2022/06/29 07:44:22;;;;;;;;;;;;;;;21.04;100.00;99533.63;5133871;28;19932;-55
2022/06/29 07:46:48;;;;;;;;;;;;;;;20.98;100.00;99507.47;5133830;28;20319;-54
2022/06/29 07:49:14;;;;;;;;;;;;;;;20.88;100.00;99489.72;5133749;28;19927;-53
2022/06/29 07:51:40;;;;;;;;;;;;;;;20.61;100.00;99490.59;5133969;28;19932;-55
2022/06/29 07:54:06;;;;;;;;;;;;;;;20.62;100.00;99478.25;5133577;28;19928;-53
2022/06/29 07:56:33;;;;;;;;;;;;;;;20.74;100.00;99460.13;5133576;28;20290;-56
2022/06/29 07:59:00;;;;;;;;;;;;;;;20.62;100.00;99469.09;5133925;28;20289;-55
2022/06/29 08:01:26;;;;;;;;;;;;;;;20.50;100.00;99464.91;5133578;28;19935;-56
2022/06/29 08:03:53;;;;;;;;;;;;;;;20.44;100.00;99459.03;5133645;28;19961;-53
2022/06/29 08:06:19;;;;;;;;;;;;;;;20.47;100.00;99437.13;5133566;28;20012;-54
2022/06/29 08:08:45;;;;;;;;;;;;;;;20.43;100.00;99435.22;5133612;28;19993;-50
2022/06/29 08:11:11;;;;;;;;;;;;;;;20.44;100.00;99439.56;5133262;28;19927;-54
2022/06/29 08:13:38;;;;;;;;;;;;;;;20.22;100.00;99438.34;5133242;28;19927;-53
2022/06/29 08:16:04;;;;;;;;;;;;;;;20.20;100.00;99424.88;5133147;28;19928;-52
2022/06/29 08:18:30;;;;;;;;;;;;;;;20.32;100.00;99412.31;5133004;28;19979;-51
2022/06/29 08:20:56;;;;;;;;;;;;;;;20.25;100.00;99420.00;5133460;28;19927;-52
2022/06/29 08:23:22;;;;;;;;;;;;;;;20.60;100.00;99416.63;5133021;28;19948;-51
2022/06/29 08:25:48;;;;;;;;;;;;;;;20.67;100.00;99418.50;5133386;28;19927;-53
2022/06/29 08:28:15;;;;;;;;;;;;;;;20.48;100.00;99416.44;5132911;28;19927;-50
2022/06/29 08:30:41;;;;;;;;;;;;;;;20.35;100.00;99411.47;5132686;27;19931;-56
2022/06/29 08:33:07;;;;;;;;;;;;;;;20.26;100.00;99400.13;5133126;28;19928;-52
2022/06/29 08:35:34;;;;;;;;;;;;;;;20.47;100.00;99364.75;5132729;28;19927;-52
2022/06/29 08:38:00;;;;;;;;;;;;;;;20.42;100.00;99371.56;5132935;28;19935;-53
2022/06/29 08:40:33;;;;;;;;;;;;;;;20.68;100.00;99358.75;5132406;28;21389;-53
2022/06/29 08:42:59;;;;;;;;;;;;;;;20.63;100.00;99379.56;5132724;28;19927;-54
2022/06/29 08:45:26;;;;;;;;;;;;;;;20.76;100.00;99409.53;5132474;28;20040;-53
2022/06/29 08:47:52;;;;;;;;;;;;;;;20.97;100.00;99420.28;5132498;28;19927;-53
2022/06/29 08:50:18;;;;;;;;;;;;;;;21.27;100.00;99441.56;5132606;28;19931;-52
2022/06/29 08:52:45;;;;;;;;;;;;;;;21.60;100.00;99428.50;5132646;28;19927;-51
2022/06/29 08:55:11;;;;;;;;;;;;;;;21.81;100.00;99437.59;5132486;28;19927;-56
2022/06/29 08:57:37;;;;;;;;;;;;;;;22.27;100.00;99435.72;5132653;28;20347;-53
2022/06/29 09:00:04;;;;;;;;;;;;;;;22.65;100.00;99485.41;5132436;28;19927;-56
2022/06/29 09:02:31;;;;;;;;;;;;;;;22.57;100.00;99532.31;5132835;28;19939;-56
2022/06/29 09:04:57;;;;;;;;;;;;;;;22.53;100.00;99565.16;5132830;28;19931;-56
2022/06/29 09:07:24;;;;;;;;;;;;;;;22.76;100.00;99657.19;5132640;28;20398;-55
2022/06/29 09:10:06;;;;;;;;;;;;;;;23.02;100.00;99635.03;5132263;28;19992;-57
2022/06/29 09:12:32;;;;;;;;;;;;;;;23.14;100.00;99701.44;5132593;28;20428;-55
2022/06/29 09:14:58;;;;;;;;;;;;;;;23.14;100.00;99707.03;5132652;28;19979;-52
2022/06/29 09:19:12;;;;;;;6.30;5.70;;;;;;;23.05;100.00;99694.88;5239609;22;20389;-61
2022/06/29 09:21:44;;;;;;;6.95;5.50;;;;;;;22.96;100.00;99721.47;5106821;28;20461;-56
2022/06/29 09:24:14;;;;;;;6.93;6.18;;;;;;;22.83;100.00;99728.16;5106408;28;20135;-57
2022/06/29 09:26:41;;;;;;;6.00;5.40;;;;;;;22.72;100.00;99709.59;5106144;28;20078;-59
2022/06/29 09:29:19;;;;;;;12.30;6.32;;;;;;;22.98;100.00;99693.03;5106765;28;20056;-60
2022/06/29 09:32:10;;;;;;;6.63;6.03;;;;;;;23.11;100.00;99665.16;5107011;28;20058;-59
2022/06/29 09:34:39;;;;;;;7.75;6.68;;;;;;;23.11;100.00;99710.69;5106406;28;20047;-58
2022/06/29 09:37:07;;;;;;;6.63;5.97;;;;;;;23.24;100.00;99739.53;5106437;28;20055;-61
2022/06/29 09:39:36;;;;;;;6.68;6.15;;;;;;;22.89;100.00;99751.53;5106350;28;20048;-59
2022/06/29 09:42:03;;;;;;;7.93;6.60;;;;;;;23.21;100.00;99728.44;5106403;28;20056;-61
2022/06/29 09:44:29;;;;;;;7.13;6.40;;;;;;;23.14;100.00;99759.38;5106438;28;20048;-61
2022/06/29 09:46:57;;;;;;;7.38;6.38;;;;;;;23.38;100.00;99701.25;5106670;28;20043;-60
2022/06/29 09:49:25;;;;;;;7.93;6.05;;;;;;;23.29;100.00;99737.44;5106224;28;20092;-61
2022/06/29 09:51:55;;;;;;;7.60;6.85;;;;;;;23.17;100.00;99731.31;5106274;28;20532;-61
2022/06/29 09:54:24;;;;;;;9.85;7.50;;;;;;;23.26;100.00;99733.53;5106426;28;20468;-61
2022/06/29 09:56:52;;;;;;;8.68;7.75;;;;;;;23.34;100.00;99694.97;5106327;28;20146;-61
2022/06/29 10:02:34;;;;;;;6.95;6.35;;;;;;;23.17;100.00;99716.56;5106371;28;20058;-60
2022/06/29 10:05:01;;;;;;;7.00;6.40;;;;;;;23.42;100.00;99738.31;5106404;28;20051;-60
2022/06/29 10:07:30;;;;;;;7.57;6.88;;;;;;;23.62;100.00;99718.59;5106417;28;20055;-61
2022/06/29 10:09:57;;;;;;;10.48;8.15;;;;;;;23.65;100.00;99737.31;5106448;28;20059;-58
2022/06/29 10:15:26;;;;;;;9.00;7.97;;;;;;;23.67;100.00;99718.06;5106212;28;20101;-58
2022/06/29 10:17:58;;;;;;;8.23;7.53;;;;;;;23.41;100.00;99670.38;5106003;28;20055;-58
2022/06/29 10:20:35;;;;;;;8.70;7.88;;;;;;;23.47;100.00;99704.97;5106387;28;20418;-56
2022/06/29 10:23:02;;;;;;;9.48;8.52;;;;;;;23.40;100.00;99710.78;5106130;28;20055;-56
2022/06/29 10:25:28;;;;;;;9.25;8.32;;;;;;;23.31;100.00;99674.22;5105918;28;20056;-57
2022/06/29 10:28:13;;;;;;;8.20;7.47;;;;;;;23.37;100.00;99683.66;5105728;28;20066;-56
2022/06/29 10:30:39;;;;;;;9.15;8.32;;;;;;;23.42;100.00;99685.13;5091842;28;20135;-55
2022/06/29 10:33:31;;;;;;;10.30;8.32;;;;;;;23.22;100.00;99677.66;5092157;28;20541;-55
2022/06/29 10:36:01;;;;;;;8.80;8.07;;;;;;;23.15;100.00;99685.44;5092091;28;20071;-55
2022/06/29 10:38:31;;;;;;;9.85;8.75;;;;;;;23.29;100.00;99659.09;5092212;28;20452;-56
2022/06/29 10:41:09;;;;;;;9.93;8.80;;;;;;;23.19;100.00;99646.97;5091853;28;20055;-57
2022/06/29 10:43:37;;;;;;;10.35;8.93;;;;;;;23.46;100.00;99641.09;5092213;28;20414;-60
2022/06/29 10:46:03;;;;;;;9.52;8.73;;;;;;;23.61;100.00;99647.06;5091960;28;20044;-60
2022/06/29 10:48:31;;;;;;;9.55;8.75;;;;;;;23.69;100.00;99656.84;5092060;28;20494;-59
2022/06/29 10:50:58;;;;;;;9.38;8.57;;;;;;;23.38;100.00;99657.25;5091918;28;20048;-54
2022/06/29 10:53:24;;;;;;;10.43;9.52;;;;;;;23.32;100.00;99658.22;5091922;28;20194;-55
2022/06/29 10:55:54;;;;;;;12.50;11.07;;;;;;;23.44;100.00;99674.31;5091830;28;20087;-53
2022/06/29 10:58:21;;;;;;;12.15;10.90;;;;;;;23.30;100.00;99674.69;5091820;28;20052;-54
2022/06/29 11:00:50;;;;;;;11.55;10.45;;;;;;;23.60;100.00;99645.50;5091712;28;20052;-55
2022/06/29 11:03:18;;;;;;;11.18;10.18;;;;;;;23.52;100.00;99616.91;5091761;28;20102;-58
2022/06/29 11:14:02;;;;;;;13.13;10.70;;;;;;;23.70;100.00;99681.63;5091685;28;20189;-55
2022/06/29 11:16:31;;;;;;;11.27;10.27;;;;;;;23.95;100.00;99672.50;5091787;28;20052;-55
2022/06/29 11:18:57;;;;;;;10.75;9.82;;;;;;;24.09;100.00;99664.91;5091416;28;20056;-55
2022/06/29 11:21:24;;;;;;;11.13;10.13;;;;;;;24.31;100.00;99687.47;5091676;28;20142;-53
2022/06/29 11:23:56;;;;;;;11.40;9.48;;;;;;;24.55;100.00;99688.75;5091338;28;20048;-54
2022/06/29 11:26:25;;;;;;;10.75;9.73;;;;;;;24.71;100.00;99704.69;5091503;28;20056;-52
2022/06/29 11:28:51;;;;;;;10.02;9.25;;;;;;;24.93;100.00;99690.00;5091103;28;20055;-56
2022/06/29 11:31:18;;;;;;;10.77;9.98;;;;;;;24.72;100.00;99717.47;5091114;28;20055;-54
2022/06/29 11:33:46;;;;;;;11.30;10.13;;;;;;;24.35;100.00;99719.75;5091170;28;20048;-55
2022/06/29 11:36:15;;;;;;;11.52;10.35;;;;;;;24.36;100.00;99717.75;5091267;28;20051;-52
2022/06/29 11:38:43;;;;;;;12.30;11.00;;;;;;;24.44;100.00;99718.38;5091432;28;20060;-55
2022/06/29 11:41:11;;;;;;;11.77;10.88;;;;;;;24.19;100.00;99717.84;5089962;28;20101;-52
2022/06/29 11:43:38;;;;;;;11.55;10.55;;;;;;;24.16;100.00;99701.13;5091302;28;20055;-56
2022/06/29 11:46:04;;;;;;;12.27;11.15;;;;;;;24.59;100.00;99702.66;5091059;28;20052;-55
2022/06/29 11:48:31;;;;;;;11.68;10.63;;;;;;;24.57;100.00;99714.34;5091188;28;20074;-55
2022/06/29 11:51:00;;;;;;;12.27;10.95;;;;;;;24.63;100.00;99714.56;5090918;28;20059;-56
2022/06/29 11:53:40;;;;;;;12.15;10.23;;;;;;;24.96;100.00;99708.72;5091006;28;20056;-55
2022/06/29 11:56:11;;;;;;;11.65;10.23;;;;;;;24.99;100.00;99697.41;5090993;28;20184;-56
2022/06/29 11:58:39;;;;;;;10.80;9.98;;;;;;;25.21;100.00;99694.69;5090706;28;20055;-54
2022/06/29 12:01:09;;;;;;;12.15;11.00;;;;;;;25.17;100.00;99656.78;5090637;28;20094;-55
2022/06/29 12:03:36;;;;;;;10.68;9.88;;;;;;;25.64;100.00;99684.78;5090774;28;20044;-56
2022/06/29 12:06:02;;;;;;;10.95;10.05;;;;;;;25.65;100.00;99647.03;5090986;28;20507;-54
2022/06/29 12:08:29;;;;;;;12.23;11.18;;;;;;;25.80;100.00;99636.91;5090691;28;20048;-56
2022/06/29 12:10:56;;;;;;;11.25;10.25;;;;;;;25.86;100.00;99585.75;5090459;28;20051;-56
2022/06/29 12:13:22;;;;;;;12.13;11.13;;;;;;;25.69;100.00;99628.06;5090406;28;20048;-56
2022/06/29 12:15:49;;;;;;;12.60;11.38;;;;;;;25.74;100.00;99607.81;5090470;28;20143;-55
2022/06/29 12:18:16;;;;;;;11.20;10.30;;;;;;;25.61;100.00;99600.69;5090658;28;20044;-55
2022/06/29 12:20:42;;;;;;;11.50;10.52;;;;;;;25.83;100.00;99592.31;5090412;28;20044;-56
2022/06/29 12:23:09;;;;;;;11.20;10.27;;;;;;;25.90;100.00;99578.75;5090475;28;20066;-56
2022/06/29 12:25:36;;;;;;;10.90;9.93;;;;;;;26.01;100.00;99551.03;5090593;28;20525;-56
2022/06/29 12:28:02;;;;;;;11.15;10.20;;;;;;;26.13;100.00;99540.94;5090504;28;20056;-56
2022/06/29 12:30:29;;;;;;;10.50;9.70;;;;;;;26.37;100.00;99588.19;5090484;28;20415;-54
2022/06/29 12:32:56;;;;;;;10.80;9.90;;;;;;;26.47;100.00;99582.16;5090252;28;20445;-57
2022/06/29 12:35:22;;;;;;;10.88;9.98;;;;;;;26.45;100.00;99586.63;5090240;28;20055;-57
2022/06/29 12:37:48;;;;;;;11.38;10.27;;;;;;;26.34;100.00;99561.00;5090407;28;20135;-56
2022/06/29 12:40:15;;;;;;;10.90;10.05;;;;;;;26.10;100.00;99502.53;5090207;28;20052;-54
2022/06/29 12:42:42;;;;;;;11.02;9.93;;;;;;;26.34;100.00;99466.22;5090363;28;20079;-55